sensor_id;sensor_type;location;lat;lon;timestamp;P1;durP1;ratioP1;P2;durP2;ratioP2
11498;SDS011;5806;48.748;9.278;2024-02-04T00:02:10;10.03;;;8.87;;
11498;SDS011;5806;48.748;9.278;2024-02-04T00:04:39;9.67;;;8.27;;
11498;SDS011;5806;48.748;9.278;2024-02-04T00:07:07;6.63;;;5.90;;
11498;SDS011;5806;48.748;9.278;2024-02-04T00:09:34;6.20;;;5.13;;
11498;SDS011;5806;48.748;9.278;2024-02-04T00:12:02;5.70;;;4.53;;
11498;SDS011;5806;48.748;9.278;2024-02-04T00:14:31;3.73;;;3.40;;
11498;SDS011;5806;48.748;9.278;2024-02-04T00:16:59;2.23;;;1.87;;
11498;SDS011;5806;48.748;9.278;2024-02-04T00:19:26;1.63;;;1.50;;
11498;SDS011;5806;48.748;9.278;2024-02-04T00:21:54;1.57;;;1.17;;
11498;SDS011;5806;48.748;9.278;2024-02-04T00:24:21;0.73;;;0.73;;
11498;SDS011;5806;48.748;9.278;2024-02-04T00:26:49;1.00;;;0.90;;
11498;SDS011;5806;48.748;9.278;2024-02-04T00:29:16;1.70;;;0.90;;
11498;SDS011;5806;48.748;9.278;2024-02-04T00:31:43;3.10;;;1.20;;
11498;SDS011;5806;48.748;9.278;2024-02-04T00:34:11;1.20;;;1.10;;
11498;SDS011;5806;48.748;9.278;2024-02-04T00:36:38;1.53;;;0.83;;
11498;SDS011;5806;48.748;9.278;2024-02-04T00:39:06;1.13;;;0.90;;
11498;SDS011;5806;48.748;9.278;2024-02-04T00:41:34;2.17;;;1.47;;
11498;SDS011;5806;48.748;9.278;2024-02-04T00:44:01;1.90;;;1.60;;
11498;SDS011;5806;48.748;9.278;2024-02-04T00:46:29;1.80;;;1.70;;
11498;SDS011;5806;48.748;9.278;2024-02-04T00:48:56;2.80;;;1.90;;
11498;SDS011;5806;48.748;9.278;2024-02-04T00:51:24;2.73;;;2.50;;
11498;SDS011;5806;48.748;9.278;2024-02-04T00:53:51;4.10;;;3.70;;
11498;SDS011;5806;48.748;9.278;2024-02-04T00:56:19;6.50;;;4.83;;
11498;SDS011;5806;48.748;9.278;2024-02-04T00:58:46;6.07;;;5.00;;
11498;SDS011;5806;48.748;9.278;2024-02-04T01:01:13;5.80;;;5.20;;
11498;SDS011;5806;48.748;9.278;2024-02-04T01:03:41;6.90;;;6.20;;
11498;SDS011;5806;48.748;9.278;2024-02-04T01:06:08;6.77;;;6.07;;
11498;SDS011;5806;48.748;9.278;2024-02-04T01:08:36;6.30;;;5.70;;
11498;SDS011;5806;48.748;9.278;2024-02-04T01:11:04;6.43;;;5.83;;
11498;SDS011;5806;48.748;9.278;2024-02-04T01:13:32;6.23;;;5.63;;
11498;SDS011;5806;48.748;9.278;2024-02-04T01:15:59;6.07;;;5.50;;
11498;SDS011;5806;48.748;9.278;2024-02-04T01:18:27;5.67;;;5.17;;
11498;SDS011;5806;48.748;9.278;2024-02-04T01:20:56;5.57;;;5.07;;
11498;SDS011;5806;48.748;9.278;2024-02-04T01:23:25;5.47;;;4.97;;
11498;SDS011;5806;48.748;9.278;2024-02-04T01:25:52;5.87;;;4.67;;
11498;SDS011;5806;48.748;9.278;2024-02-04T01:28:20;3.97;;;3.67;;
11498;SDS011;5806;48.748;9.278;2024-02-04T01:30:47;5.17;;;4.47;;
11498;SDS011;5806;48.748;9.278;2024-02-04T01:33:15;4.20;;;3.90;;
11498;SDS011;5806;48.748;9.278;2024-02-04T01:35:42;6.27;;;3.77;;
11498;SDS011;5806;48.748;9.278;2024-02-04T01:38:09;3.43;;;3.13;;
11498;SDS011;5806;48.748;9.278;2024-02-04T01:40:37;4.23;;;3.40;;
11498;SDS011;5806;48.748;9.278;2024-02-04T01:43:04;3.67;;;3.27;;
11498;SDS011;5806;48.748;9.278;2024-02-04T01:45:32;3.80;;;3.07;;
11498;SDS011;5806;48.748;9.278;2024-02-04T01:47:59;3.20;;;2.90;;
11498;SDS011;5806;48.748;9.278;2024-02-04T01:50:27;3.90;;;3.03;;
11498;SDS011;5806;48.748;9.278;2024-02-04T01:52:54;4.70;;;3.00;;
11498;SDS011;5806;48.748;9.278;2024-02-04T01:55:22;3.80;;;2.90;;
11498;SDS011;5806;48.748;9.278;2024-02-04T01:57:50;3.43;;;3.10;;
11498;SDS011;5806;48.748;9.278;2024-02-04T02:00:18;3.27;;;2.67;;
11498;SDS011;5806;48.748;9.278;2024-02-04T02:02:46;3.47;;;2.87;;
11498;SDS011;5806;48.748;9.278;2024-02-04T02:05:14;3.03;;;2.73;;
11498;SDS011;5806;48.748;9.278;2024-02-04T02:07:42;2.63;;;2.40;;
11498;SDS011;5806;48.748;9.278;2024-02-04T02:10:11;2.93;;;2.70;;
11498;SDS011;5806;48.748;9.278;2024-02-04T02:15:19;4.20;;;2.93;;
11498;SDS011;5806;48.748;9.278;2024-02-04T02:17:57;5.20;;;2.90;;
11498;SDS011;5806;48.748;9.278;2024-02-04T02:23:35;3.30;;;2.93;;
11498;SDS011;5806;48.748;9.278;2024-02-04T02:26:02;3.50;;;3.00;;
11498;SDS011;5806;48.748;9.278;2024-02-04T02:28:30;3.77;;;3.20;;
11498;SDS011;5806;48.748;9.278;2024-02-04T02:30:58;3.33;;;2.83;;
11498;SDS011;5806;48.748;9.278;2024-02-04T02:33:25;3.27;;;2.80;;
11498;SDS011;5806;48.748;9.278;2024-02-04T02:35:53;4.40;;;3.23;;
11498;SDS011;5806;48.748;9.278;2024-02-04T02:38:33;4.47;;;3.30;;
11498;SDS011;5806;48.748;9.278;2024-02-04T02:41:06;3.23;;;2.57;;
11498;SDS011;5806;48.748;9.278;2024-02-04T02:43:34;3.40;;;3.10;;
11498;SDS011;5806;48.748;9.278;2024-02-04T02:46:04;4.77;;;3.30;;
11498;SDS011;5806;48.748;9.278;2024-02-04T02:48:33;5.97;;;3.30;;
11498;SDS011;5806;48.748;9.278;2024-02-04T02:51:00;4.10;;;3.43;;
11498;SDS011;5806;48.748;9.278;2024-02-04T02:53:28;3.70;;;3.30;;
11498;SDS011;5806;48.748;9.278;2024-02-04T02:55:55;3.87;;;3.30;;
11498;SDS011;5806;48.748;9.278;2024-02-04T02:58:23;4.77;;;3.40;;
11498;SDS011;5806;48.748;9.278;2024-02-04T03:00:50;5.03;;;3.70;;
11498;SDS011;5806;48.748;9.278;2024-02-04T03:03:17;4.33;;;2.97;;
11498;SDS011;5806;48.748;9.278;2024-02-04T03:05:45;5.47;;;3.37;;
11498;SDS011;5806;48.748;9.278;2024-02-04T03:08:12;4.07;;;3.43;;
11498;SDS011;5806;48.748;9.278;2024-02-04T03:10:40;4.17;;;3.73;;
11498;SDS011;5806;48.748;9.278;2024-02-04T03:13:07;5.13;;;3.90;;
11498;SDS011;5806;48.748;9.278;2024-02-04T03:15:35;5.77;;;3.90;;
11498;SDS011;5806;48.748;9.278;2024-02-04T03:18:02;4.30;;;3.90;;
11498;SDS011;5806;48.748;9.278;2024-02-04T03:20:30;3.93;;;3.53;;
11498;SDS011;5806;48.748;9.278;2024-02-04T03:22:57;4.13;;;3.73;;
11498;SDS011;5806;48.748;9.278;2024-02-04T03:25:24;4.93;;;3.73;;
11498;SDS011;5806;48.748;9.278;2024-02-04T03:27:53;4.27;;;3.33;;
11498;SDS011;5806;48.748;9.278;2024-02-04T03:30:21;4.30;;;3.90;;
11498;SDS011;5806;48.748;9.278;2024-02-04T03:32:49;7.27;;;3.70;;
11498;SDS011;5806;48.748;9.278;2024-02-04T03:35:16;4.27;;;3.87;;
11498;SDS011;5806;48.748;9.278;2024-02-04T03:37:43;4.90;;;4.37;;
11498;SDS011;5806;48.748;9.278;2024-02-04T03:40:11;6.40;;;3.70;;
11498;SDS011;5806;48.748;9.278;2024-02-04T03:42:39;4.50;;;4.10;;
11498;SDS011;5806;48.748;9.278;2024-02-04T03:45:06;5.77;;;4.60;;
11498;SDS011;5806;48.748;9.278;2024-02-04T03:47:34;6.07;;;4.60;;
11498;SDS011;5806;48.748;9.278;2024-02-04T03:50:01;6.50;;;4.07;;
11498;SDS011;5806;48.748;9.278;2024-02-04T03:52:29;5.37;;;4.47;;
11498;SDS011;5806;48.748;9.278;2024-02-04T03:54:56;5.60;;;4.20;;
11498;SDS011;5806;48.748;9.278;2024-02-04T03:57:25;5.17;;;4.37;;
11498;SDS011;5806;48.748;9.278;2024-02-04T03:59:52;4.83;;;4.43;;
11498;SDS011;5806;48.748;9.278;2024-02-04T04:02:20;5.43;;;4.67;;
11498;SDS011;5806;48.748;9.278;2024-02-04T04:04:47;5.70;;;4.67;;
11498;SDS011;5806;48.748;9.278;2024-02-04T04:07:15;4.80;;;4.40;;
11498;SDS011;5806;48.748;9.278;2024-02-04T04:09:42;6.07;;;4.97;;
11498;SDS011;5806;48.748;9.278;2024-02-04T04:12:09;5.23;;;4.73;;
11498;SDS011;5806;48.748;9.278;2024-02-04T04:14:37;5.63;;;4.77;;
11498;SDS011;5806;48.748;9.278;2024-02-04T04:17:04;5.80;;;5.20;;
11498;SDS011;5806;48.748;9.278;2024-02-04T04:19:32;5.87;;;5.23;;
11498;SDS011;5806;48.748;9.278;2024-02-04T04:22:01;7.83;;;5.70;;
11498;SDS011;5806;48.748;9.278;2024-02-04T04:24:29;6.30;;;5.53;;
11498;SDS011;5806;48.748;9.278;2024-02-04T04:26:56;5.87;;;5.27;;
11498;SDS011;5806;48.748;9.278;2024-02-04T04:29:24;6.57;;;5.50;;
11498;SDS011;5806;48.748;9.278;2024-02-04T04:31:52;6.00;;;5.40;;
11498;SDS011;5806;48.748;9.278;2024-02-04T04:34:19;5.37;;;4.87;;
11498;SDS011;5806;48.748;9.278;2024-02-04T04:36:46;5.23;;;4.73;;
11498;SDS011;5806;48.748;9.278;2024-02-04T04:39:14;4.57;;;4.10;;
11498;SDS011;5806;48.748;9.278;2024-02-04T04:41:43;4.97;;;4.47;;
11498;SDS011;5806;48.748;9.278;2024-02-04T04:44:11;5.33;;;4.20;;
11498;SDS011;5806;48.748;9.278;2024-02-04T04:46:38;5.47;;;4.30;;
11498;SDS011;5806;48.748;9.278;2024-02-04T04:49:06;4.20;;;3.60;;
11498;SDS011;5806;48.748;9.278;2024-02-04T04:51:34;4.93;;;3.93;;
11498;SDS011;5806;48.748;9.278;2024-02-04T04:54:01;5.17;;;4.20;;
11498;SDS011;5806;48.748;9.278;2024-02-04T04:56:29;4.43;;;3.73;;
11498;SDS011;5806;48.748;9.278;2024-02-04T04:58:56;5.07;;;3.93;;
11498;SDS011;5806;48.748;9.278;2024-02-04T05:01:24;5.07;;;4.00;;
11498;SDS011;5806;48.748;9.278;2024-02-04T05:03:52;4.80;;;4.07;;
11498;SDS011;5806;48.748;9.278;2024-02-04T05:06:19;4.23;;;3.60;;
11498;SDS011;5806;48.748;9.278;2024-02-04T05:08:46;4.70;;;4.30;;
11498;SDS011;5806;48.748;9.278;2024-02-04T05:11:14;5.50;;;4.83;;
11498;SDS011;5806;48.748;9.278;2024-02-04T05:13:41;6.80;;;4.90;;
11498;SDS011;5806;48.748;9.278;2024-02-04T05:16:09;5.37;;;4.87;;
11498;SDS011;5806;48.748;9.278;2024-02-04T05:18:36;7.20;;;4.50;;
11498;SDS011;5806;48.748;9.278;2024-02-04T05:21:03;4.70;;;4.20;;
11498;SDS011;5806;48.748;9.278;2024-02-04T05:23:31;6.57;;;4.67;;
11498;SDS011;5806;48.748;9.278;2024-02-04T05:26:02;5.77;;;5.17;;
11498;SDS011;5806;48.748;9.278;2024-02-04T05:28:31;7.27;;;4.80;;
11498;SDS011;5806;48.748;9.278;2024-02-04T05:31:00;6.70;;;5.17;;
11498;SDS011;5806;48.748;9.278;2024-02-04T05:33:28;6.67;;;5.40;;
11498;SDS011;5806;48.748;9.278;2024-02-04T05:35:55;5.97;;;4.47;;
11498;SDS011;5806;48.748;9.278;2024-02-04T05:38:23;6.13;;;4.90;;
11498;SDS011;5806;48.748;9.278;2024-02-04T05:40:51;9.37;;;5.97;;
11498;SDS011;5806;48.748;9.278;2024-02-04T05:43:18;5.93;;;5.00;;
11498;SDS011;5806;48.748;9.278;2024-02-04T05:45:45;6.07;;;5.13;;
11498;SDS011;5806;48.748;9.278;2024-02-04T05:48:13;8.43;;;5.47;;
11498;SDS011;5806;48.748;9.278;2024-02-04T05:50:40;6.07;;;5.30;;
11498;SDS011;5806;48.748;9.278;2024-02-04T05:53:08;7.63;;;5.87;;
11498;SDS011;5806;48.748;9.278;2024-02-04T05:55:35;6.37;;;5.57;;
11498;SDS011;5806;48.748;9.278;2024-02-04T05:58:03;6.73;;;5.30;;
11498;SDS011;5806;48.748;9.278;2024-02-04T06:00:30;6.07;;;4.67;;
11498;SDS011;5806;48.748;9.278;2024-02-04T06:02:58;6.40;;;5.03;;
11498;SDS011;5806;48.748;9.278;2024-02-04T06:05:25;6.87;;;5.70;;
11498;SDS011;5806;48.748;9.278;2024-02-04T06:07:52;8.03;;;5.60;;
11498;SDS011;5806;48.748;9.278;2024-02-04T06:10:20;8.10;;;5.97;;
11498;SDS011;5806;48.748;9.278;2024-02-04T06:12:47;9.10;;;5.90;;
11498;SDS011;5806;48.748;9.278;2024-02-04T06:15:15;8.43;;;5.97;;
11498;SDS011;5806;48.748;9.278;2024-02-04T06:17:43;6.00;;;5.20;;
11498;SDS011;5806;48.748;9.278;2024-02-04T06:20:10;6.10;;;5.47;;
11498;SDS011;5806;48.748;9.278;2024-02-04T06:22:37;6.80;;;5.73;;
11498;SDS011;5806;48.748;9.278;2024-02-04T06:25:05;6.97;;;6.20;;
11498;SDS011;5806;48.748;9.278;2024-02-04T06:27:33;7.53;;;6.30;;
11498;SDS011;5806;48.748;9.278;2024-02-04T06:30:00;7.63;;;5.80;;
11498;SDS011;5806;48.748;9.278;2024-02-04T06:32:28;5.80;;;5.20;;
11498;SDS011;5806;48.748;9.278;2024-02-04T06:34:55;6.40;;;5.50;;
11498;SDS011;5806;48.748;9.278;2024-02-04T06:37:23;5.80;;;5.17;;
11498;SDS011;5806;48.748;9.278;2024-02-04T06:39:51;6.53;;;5.50;;
11498;SDS011;5806;48.748;9.278;2024-02-04T06:42:19;7.67;;;5.00;;
11498;SDS011;5806;48.748;9.278;2024-02-04T06:44:46;6.37;;;5.20;;
11498;SDS011;5806;48.748;9.278;2024-02-04T06:47:14;5.83;;;5.17;;
11498;SDS011;5806;48.748;9.278;2024-02-04T06:49:44;6.63;;;4.57;;
11498;SDS011;5806;48.748;9.278;2024-02-04T06:52:12;5.60;;;4.57;;
11498;SDS011;5806;48.748;9.278;2024-02-04T06:54:39;6.30;;;5.17;;
11498;SDS011;5806;48.748;9.278;2024-02-04T06:57:07;6.70;;;4.50;;
11498;SDS011;5806;48.748;9.278;2024-02-04T06:59:34;6.10;;;4.60;;
11498;SDS011;5806;48.748;9.278;2024-02-04T07:02:02;4.93;;;4.43;;
11498;SDS011;5806;48.748;9.278;2024-02-04T07:04:29;5.77;;;3.57;;
11498;SDS011;5806;48.748;9.278;2024-02-04T07:06:57;5.83;;;4.13;;
11498;SDS011;5806;48.748;9.278;2024-02-04T07:09:24;4.10;;;3.33;;
11498;SDS011;5806;48.748;9.278;2024-02-04T07:11:52;3.47;;;2.77;;
11498;SDS011;5806;48.748;9.278;2024-02-04T07:14:19;4.50;;;3.40;;
11498;SDS011;5806;48.748;9.278;2024-02-04T07:16:47;2.97;;;2.67;;
11498;SDS011;5806;48.748;9.278;2024-02-04T07:19:15;2.43;;;2.20;;
11498;SDS011;5806;48.748;9.278;2024-02-04T07:21:42;2.50;;;1.90;;
11498;SDS011;5806;48.748;9.278;2024-02-04T07:24:10;2.40;;;1.90;;
11498;SDS011;5806;48.748;9.278;2024-02-04T07:26:37;2.63;;;1.83;;
11498;SDS011;5806;48.748;9.278;2024-02-04T07:29:04;3.77;;;2.20;;
11498;SDS011;5806;48.748;9.278;2024-02-04T07:31:32;3.10;;;2.57;;
11498;SDS011;5806;48.748;9.278;2024-02-04T07:34:01;2.30;;;2.00;;
11498;SDS011;5806;48.748;9.278;2024-02-04T07:36:28;3.10;;;2.67;;
11498;SDS011;5806;48.748;9.278;2024-02-04T07:38:57;3.03;;;2.80;;
11498;SDS011;5806;48.748;9.278;2024-02-04T07:41:25;2.47;;;2.13;;
11498;SDS011;5806;48.748;9.278;2024-02-04T07:43:53;2.57;;;2.27;;
11498;SDS011;5806;48.748;9.278;2024-02-04T07:46:21;2.63;;;1.70;;
11498;SDS011;5806;48.748;9.278;2024-02-04T07:48:48;1.97;;;1.60;;
11498;SDS011;5806;48.748;9.278;2024-02-04T07:51:15;1.70;;;1.60;;
11498;SDS011;5806;48.748;9.278;2024-02-04T07:53:43;2.40;;;1.60;;
11498;SDS011;5806;48.748;9.278;2024-02-04T07:56:11;1.67;;;1.43;;
11498;SDS011;5806;48.748;9.278;2024-02-04T07:58:38;1.43;;;1.33;;
11498;SDS011;5806;48.748;9.278;2024-02-04T08:01:05;1.80;;;1.60;;
11498;SDS011;5806;48.748;9.278;2024-02-04T08:03:33;3.27;;;1.70;;
11498;SDS011;5806;48.748;9.278;2024-02-04T08:06:01;1.63;;;1.53;;
11498;SDS011;5806;48.748;9.278;2024-02-04T08:08:29;1.40;;;1.30;;
11498;SDS011;5806;48.748;9.278;2024-02-04T08:10:56;1.60;;;1.50;;
11498;SDS011;5806;48.748;9.278;2024-02-04T08:13:23;1.63;;;1.50;;
11498;SDS011;5806;48.748;9.278;2024-02-04T08:15:51;3.33;;;1.47;;
11498;SDS011;5806;48.748;9.278;2024-02-04T08:18:18;1.53;;;1.43;;
11498;SDS011;5806;48.748;9.278;2024-02-04T08:20:46;1.27;;;1.13;;
11498;SDS011;5806;48.748;9.278;2024-02-04T08:23:13;1.43;;;1.27;;
11498;SDS011;5806;48.748;9.278;2024-02-04T08:25:41;1.30;;;1.20;;
11498;SDS011;5806;48.748;9.278;2024-02-04T08:28:08;2.07;;;1.20;;
11498;SDS011;5806;48.748;9.278;2024-02-04T08:30:36;1.60;;;1.50;;
11498;SDS011;5806;48.748;9.278;2024-02-04T08:33:03;2.83;;;1.83;;
11498;SDS011;5806;48.748;9.278;2024-02-04T08:35:31;2.60;;;1.73;;
11498;SDS011;5806;48.748;9.278;2024-02-04T08:37:58;1.80;;;1.50;;
11498;SDS011;5806;48.748;9.278;2024-02-04T08:40:26;1.50;;;1.40;;
11498;SDS011;5806;48.748;9.278;2024-02-04T08:42:53;2.70;;;2.10;;
11498;SDS011;5806;48.748;9.278;2024-02-04T08:45:21;2.40;;;2.07;;
11498;SDS011;5806;48.748;9.278;2024-02-04T08:47:49;3.17;;;2.00;;
11498;SDS011;5806;48.748;9.278;2024-02-04T08:50:16;1.80;;;1.67;;
11498;SDS011;5806;48.748;9.278;2024-02-04T08:52:43;3.13;;;2.10;;
11498;SDS011;5806;48.748;9.278;2024-02-04T08:55:11;2.20;;;2.00;;
11498;SDS011;5806;48.748;9.278;2024-02-04T08:57:38;2.20;;;1.90;;
11498;SDS011;5806;48.748;9.278;2024-02-04T09:00:06;2.47;;;1.97;;
11498;SDS011;5806;48.748;9.278;2024-02-04T09:02:36;2.43;;;1.97;;
11498;SDS011;5806;48.748;9.278;2024-02-04T09:05:03;2.83;;;2.00;;
11498;SDS011;5806;48.748;9.278;2024-02-04T09:07:31;2.80;;;1.90;;
11498;SDS011;5806;48.748;9.278;2024-02-04T09:09:59;3.00;;;1.60;;
11498;SDS011;5806;48.748;9.278;2024-02-04T09:12:26;2.57;;;1.67;;
11498;SDS011;5806;48.748;9.278;2024-02-04T09:14:53;1.63;;;1.53;;
11498;SDS011;5806;48.748;9.278;2024-02-04T09:17:21;1.87;;;1.57;;
11498;SDS011;5806;48.748;9.278;2024-02-04T09:19:48;2.13;;;1.20;;
11498;SDS011;5806;48.748;9.278;2024-02-04T09:22:16;1.53;;;1.43;;
11498;SDS011;5806;48.748;9.278;2024-02-04T09:24:43;1.53;;;1.07;;
11498;SDS011;5806;48.748;9.278;2024-02-04T09:27:11;1.20;;;1.10;;
11498;SDS011;5806;48.748;9.278;2024-02-04T09:29:38;1.70;;;1.60;;
11498;SDS011;5806;48.748;9.278;2024-02-04T09:32:06;3.40;;;0.77;;
11498;SDS011;5806;48.748;9.278;2024-02-04T09:34:33;1.97;;;0.90;;
11498;SDS011;5806;48.748;9.278;2024-02-04T09:37:01;2.33;;;0.90;;
11498;SDS011;5806;48.748;9.278;2024-02-04T09:39:28;1.73;;;1.10;;
11498;SDS011;5806;48.748;9.278;2024-02-04T09:41:55;0.83;;;0.80;;
11498;SDS011;5806;48.748;9.278;2024-02-04T09:44:23;1.10;;;0.73;;
11498;SDS011;5806;48.748;9.278;2024-02-04T09:46:50;0.73;;;0.73;;
11498;SDS011;5806;48.748;9.278;2024-02-04T09:49:18;1.80;;;0.90;;
11498;SDS011;5806;48.748;9.278;2024-02-04T09:51:46;0.70;;;0.70;;
11498;SDS011;5806;48.748;9.278;2024-02-04T09:54:14;1.10;;;0.80;;
11498;SDS011;5806;48.748;9.278;2024-02-04T09:56:44;1.57;;;0.77;;
11498;SDS011;5806;48.748;9.278;2024-02-04T09:59:13;1.00;;;0.90;;
11498;SDS011;5806;48.748;9.278;2024-02-04T10:01:40;2.10;;;0.90;;
11498;SDS011;5806;48.748;9.278;2024-02-04T10:04:08;1.23;;;1.07;;
11498;SDS011;5806;48.748;9.278;2024-02-04T10:06:36;1.13;;;0.90;;
11498;SDS011;5806;48.748;9.278;2024-02-04T10:09:03;0.83;;;0.83;;
11498;SDS011;5806;48.748;9.278;2024-02-04T10:11:32;1.03;;;0.90;;
11498;SDS011;5806;48.748;9.278;2024-02-04T10:13:59;2.47;;;0.97;;
11498;SDS011;5806;48.748;9.278;2024-02-04T10:16:27;1.40;;;1.23;;
11498;SDS011;5806;48.748;9.278;2024-02-04T10:18:55;1.30;;;1.20;;
11498;SDS011;5806;48.748;9.278;2024-02-04T10:21:23;2.53;;;1.10;;
11498;SDS011;5806;48.748;9.278;2024-02-04T10:23:51;1.57;;;1.20;;
11498;SDS011;5806;48.748;9.278;2024-02-04T10:26:18;1.93;;;1.30;;
11498;SDS011;5806;48.748;9.278;2024-02-04T10:28:46;2.87;;;1.17;;
11498;SDS011;5806;48.748;9.278;2024-02-04T10:31:14;2.87;;;1.20;;
11498;SDS011;5806;48.748;9.278;2024-02-04T10:33:42;1.83;;;1.27;;
11498;SDS011;5806;48.748;9.278;2024-02-04T10:36:10;1.40;;;1.30;;
11498;SDS011;5806;48.748;9.278;2024-02-04T10:38:37;4.57;;;1.80;;
11498;SDS011;5806;48.748;9.278;2024-02-04T10:41:04;1.90;;;1.40;;
11498;SDS011;5806;48.748;9.278;2024-02-04T10:43:34;3.00;;;1.70;;
11498;SDS011;5806;48.748;9.278;2024-02-04T10:46:09;1.67;;;1.50;;
11498;SDS011;5806;48.748;9.278;2024-02-04T10:48:36;1.77;;;1.67;;
11498;SDS011;5806;48.748;9.278;2024-02-04T10:51:06;2.40;;;1.57;;
11498;SDS011;5806;48.748;9.278;2024-02-04T10:53:35;2.10;;;1.80;;
11498;SDS011;5806;48.748;9.278;2024-02-04T10:56:03;2.83;;;1.80;;
11498;SDS011;5806;48.748;9.278;2024-02-04T10:58:33;2.77;;;1.90;;
11498;SDS011;5806;48.748;9.278;2024-02-04T11:01:02;3.03;;;1.77;;
11498;SDS011;5806;48.748;9.278;2024-02-04T11:03:29;3.57;;;2.10;;
11498;SDS011;5806;48.748;9.278;2024-02-04T11:05:57;3.93;;;1.90;;
11498;SDS011;5806;48.748;9.278;2024-02-04T11:08:25;2.93;;;2.03;;
11498;SDS011;5806;48.748;9.278;2024-02-04T11:10:54;2.70;;;2.07;;
11498;SDS011;5806;48.748;9.278;2024-02-04T11:13:21;3.37;;;2.20;;
11498;SDS011;5806;48.748;9.278;2024-02-04T11:15:50;2.50;;;1.83;;
11498;SDS011;5806;48.748;9.278;2024-02-04T11:18:35;2.23;;;1.70;;
11498;SDS011;5806;48.748;9.278;2024-02-04T11:23:52;1.37;;;1.10;;
11498;SDS011;5806;48.748;9.278;2024-02-04T11:26:25;2.03;;;1.03;;
11498;SDS011;5806;48.748;9.278;2024-02-04T11:28:53;1.23;;;0.73;;
11498;SDS011;5806;48.748;9.278;2024-02-04T11:31:21;1.37;;;1.10;;
11498;SDS011;5806;48.748;9.278;2024-02-04T11:33:51;1.10;;;0.80;;
11498;SDS011;5806;48.748;9.278;2024-02-04T11:36:23;1.20;;;0.83;;
11498;SDS011;5806;48.748;9.278;2024-02-04T11:38:49;1.13;;;0.80;;
11498;SDS011;5806;48.748;9.278;2024-02-04T11:41:21;1.27;;;0.70;;
11498;SDS011;5806;48.748;9.278;2024-02-04T11:43:53;1.10;;;0.77;;
11498;SDS011;5806;48.748;9.278;2024-02-04T11:46:22;1.00;;;0.80;;
11498;SDS011;5806;48.748;9.278;2024-02-04T11:48:54;0.83;;;0.70;;
11498;SDS011;5806;48.748;9.278;2024-02-04T11:51:21;0.93;;;0.73;;
11498;SDS011;5806;48.748;9.278;2024-02-04T11:53:50;2.13;;;0.83;;
11498;SDS011;5806;48.748;9.278;2024-02-04T11:56:18;1.30;;;1.00;;
11498;SDS011;5806;48.748;9.278;2024-02-04T11:58:46;1.40;;;1.13;;
11498;SDS011;5806;48.748;9.278;2024-02-04T12:01:14;2.13;;;1.43;;
11498;SDS011;5806;48.748;9.278;2024-02-04T12:03:41;1.97;;;1.30;;
11498;SDS011;5806;48.748;9.278;2024-02-04T12:06:08;1.70;;;1.17;;
11498;SDS011;5806;48.748;9.278;2024-02-04T12:08:38;1.60;;;1.27;;
11498;SDS011;5806;48.748;9.278;2024-02-04T12:11:05;1.97;;;1.47;;
11498;SDS011;5806;48.748;9.278;2024-02-04T12:13:33;2.30;;;1.60;;
11498;SDS011;5806;48.748;9.278;2024-02-04T12:16:04;3.53;;;1.60;;
11498;SDS011;5806;48.748;9.278;2024-02-04T12:18:34;3.10;;;1.60;;
11498;SDS011;5806;48.748;9.278;2024-02-04T12:21:02;2.40;;;1.40;;
11498;SDS011;5806;48.748;9.278;2024-02-04T12:23:29;2.50;;;1.50;;
11498;SDS011;5806;48.748;9.278;2024-02-04T12:25:57;2.50;;;1.60;;
11498;SDS011;5806;48.748;9.278;2024-02-04T12:28:25;2.87;;;1.53;;
11498;SDS011;5806;48.748;9.278;2024-02-04T12:30:53;3.70;;;1.70;;
11498;SDS011;5806;48.748;9.278;2024-02-04T12:33:21;3.17;;;1.30;;
11498;SDS011;5806;48.748;9.278;2024-02-04T12:35:51;2.00;;;1.30;;
11498;SDS011;5806;48.748;9.278;2024-02-04T12:38:21;1.90;;;1.70;;
11498;SDS011;5806;48.748;9.278;2024-02-04T12:40:48;2.07;;;1.40;;
11498;SDS011;5806;48.748;9.278;2024-02-04T12:43:16;2.07;;;1.00;;
11498;SDS011;5806;48.748;9.278;2024-02-04T12:45:43;1.47;;;1.37;;
11498;SDS011;5806;48.748;9.278;2024-02-04T12:48:13;2.33;;;1.40;;
11498;SDS011;5806;48.748;9.278;2024-02-04T12:50:43;1.70;;;1.13;;
11498;SDS011;5806;48.748;9.278;2024-02-04T12:53:11;1.00;;;0.90;;
11498;SDS011;5806;48.748;9.278;2024-02-04T12:55:39;3.07;;;1.23;;
11498;SDS011;5806;48.748;9.278;2024-02-04T12:58:09;2.27;;;1.20;;
11498;SDS011;5806;48.748;9.278;2024-02-04T13:00:39;1.30;;;0.87;;
11498;SDS011;5806;48.748;9.278;2024-02-04T13:03:06;1.47;;;1.30;;
11498;SDS011;5806;48.748;9.278;2024-02-04T13:05:34;3.07;;;1.20;;
11498;SDS011;5806;48.748;9.278;2024-02-04T13:08:02;1.37;;;1.27;;
11498;SDS011;5806;48.748;9.278;2024-02-04T13:10:31;1.43;;;1.33;;
11498;SDS011;5806;48.748;9.278;2024-02-04T13:13:00;1.67;;;1.57;;
11498;SDS011;5806;48.748;9.278;2024-02-04T13:15:35;1.93;;;1.70;;
11498;SDS011;5806;48.748;9.278;2024-02-04T13:17:58;3.30;;;1.50;;
11498;SDS011;5806;48.748;9.278;2024-02-04T13:20:26;5.20;;;2.33;;
11498;SDS011;5806;48.748;9.278;2024-02-04T13:22:53;1.73;;;1.63;;
11498;SDS011;5806;48.748;9.278;2024-02-04T13:25:21;1.80;;;1.70;;
11498;SDS011;5806;48.748;9.278;2024-02-04T13:27:48;2.70;;;2.10;;
11498;SDS011;5806;48.748;9.278;2024-02-04T13:30:16;1.83;;;1.70;;
11498;SDS011;5806;48.748;9.278;2024-02-04T13:32:45;2.23;;;1.67;;
11498;SDS011;5806;48.748;9.278;2024-02-04T13:35:12;2.03;;;1.83;;
11498;SDS011;5806;48.748;9.278;2024-02-04T13:37:45;1.60;;;1.50;;
11498;SDS011;5806;48.748;9.278;2024-02-04T13:40:15;2.90;;;1.80;;
11498;SDS011;5806;48.748;9.278;2024-02-04T13:42:43;2.00;;;1.80;;
11498;SDS011;5806;48.748;9.278;2024-02-04T13:45:12;1.93;;;1.73;;
11498;SDS011;5806;48.748;9.278;2024-02-04T13:47:40;3.00;;;1.70;;
11498;SDS011;5806;48.748;9.278;2024-02-04T13:50:09;2.37;;;1.70;;
11498;SDS011;5806;48.748;9.278;2024-02-04T13:52:38;2.10;;;1.87;;
11498;SDS011;5806;48.748;9.278;2024-02-04T13:55:05;1.80;;;1.70;;
11498;SDS011;5806;48.748;9.278;2024-02-04T13:57:33;2.53;;;1.70;;
11498;SDS011;5806;48.748;9.278;2024-02-04T14:00:01;1.70;;;1.60;;
11498;SDS011;5806;48.748;9.278;2024-02-04T14:02:30;3.93;;;1.90;;
11498;SDS011;5806;48.748;9.278;2024-02-04T14:04:58;2.20;;;1.43;;
11498;SDS011;5806;48.748;9.278;2024-02-04T14:07:25;1.43;;;1.33;;
11498;SDS011;5806;48.748;9.278;2024-02-04T14:09:53;2.00;;;1.30;;
11498;SDS011;5806;48.748;9.278;2024-02-04T14:12:21;1.43;;;1.33;;
11498;SDS011;5806;48.748;9.278;2024-02-04T14:14:49;1.30;;;1.20;;
11498;SDS011;5806;48.748;9.278;2024-02-04T14:17:16;1.53;;;1.10;;
11498;SDS011;5806;48.748;9.278;2024-02-04T14:19:44;1.40;;;1.30;;
11498;SDS011;5806;48.748;9.278;2024-02-04T14:22:13;2.30;;;1.30;;
11498;SDS011;5806;48.748;9.278;2024-02-04T14:24:40;1.70;;;1.40;;
11498;SDS011;5806;48.748;9.278;2024-02-04T14:27:08;1.00;;;1.00;;
11498;SDS011;5806;48.748;9.278;2024-02-04T14:29:35;1.30;;;1.20;;
11498;SDS011;5806;48.748;9.278;2024-02-04T14:32:03;2.23;;;1.13;;
11498;SDS011;5806;48.748;9.278;2024-02-04T14:34:30;1.00;;;0.90;;
11498;SDS011;5806;48.748;9.278;2024-02-04T14:36:58;1.77;;;1.03;;
11498;SDS011;5806;48.748;9.278;2024-02-04T14:39:25;2.43;;;1.53;;
11498;SDS011;5806;48.748;9.278;2024-02-04T14:41:53;1.30;;;1.20;;
11498;SDS011;5806;48.748;9.278;2024-02-04T14:44:21;3.13;;;1.00;;
11498;SDS011;5806;48.748;9.278;2024-02-04T14:46:49;1.10;;;1.00;;
11498;SDS011;5806;48.748;9.278;2024-02-04T14:49:16;1.30;;;1.20;;
11498;SDS011;5806;48.748;9.278;2024-02-04T14:51:44;1.57;;;1.23;;
11498;SDS011;5806;48.748;9.278;2024-02-04T14:54:11;1.53;;;1.20;;
11498;SDS011;5806;48.748;9.278;2024-02-04T14:56:39;1.30;;;1.10;;
11498;SDS011;5806;48.748;9.278;2024-02-04T14:59:10;1.63;;;1.33;;
11498;SDS011;5806;48.748;9.278;2024-02-04T15:01:38;1.60;;;1.47;;
11498;SDS011;5806;48.748;9.278;2024-02-04T15:04:05;1.30;;;1.20;;
11498;SDS011;5806;48.748;9.278;2024-02-04T15:06:33;1.77;;;1.33;;
11498;SDS011;5806;48.748;9.278;2024-02-04T15:09:00;2.10;;;1.60;;
11498;SDS011;5806;48.748;9.278;2024-02-04T15:11:28;1.77;;;1.40;;
11498;SDS011;5806;48.748;9.278;2024-02-04T15:13:56;1.93;;;1.40;;